createdAt,value
2019-02-11T00:00:00.268Z,7.75
2019-02-11T00:01:00.233Z,7.75
2019-02-11T00:02:00.227Z,7.79
2019-02-11T00:03:00.212Z,7.75
2019-02-11T00:04:00.217Z,7.67
2019-02-11T00:05:00.283Z,7.58
2019-02-11T00:06:00.178Z,7.55
2019-02-11T00:07:00.172Z,7.49
2019-02-11T00:08:00.159Z,7.44
2019-02-11T00:09:00.149Z,7.41
2019-02-11T00:10:00.284Z,7.31
2019-02-11T00:11:00.141Z,7.32
2019-02-11T00:12:00.120Z,7.31
2019-02-11T00:13:00.103Z,7.20
2019-02-11T00:14:00.097Z,7.27
2019-02-11T00:15:00.103Z,7.19
2019-02-11T00:16:00.075Z,7.19
2019-02-11T00:17:00.072Z,7.22
2019-02-11T00:18:00.056Z,7.09
2019-02-11T00:19:00.041Z,7.09
2019-02-11T00:20:00.046Z,7.08
2019-02-11T00:21:00.019Z,6.98
2019-02-11T00:22:00.009Z,6.98
2019-02-11T00:23:00.003Z,6.90
2019-02-11T00:23:59.991Z,6.89
2019-02-11T00:24:59.989Z,6.94
2019-02-11T00:25:59.970Z,6.81
2019-02-11T00:26:59.956Z,6.81
2019-02-11T00:27:59.950Z,6.80
2019-02-11T00:28:59.937Z,6.79
2019-02-11T00:29:59.957Z,6.77
2019-02-11T00:30:59.909Z,6.80
2019-02-11T00:31:59.907Z,6.63
2019-02-11T00:32:59.940Z,6.71
2019-02-11T00:33:59.884Z,6.68
2019-02-11T00:34:59.877Z,6.76
2019-02-11T00:35:59.857Z,6.62
2019-02-11T00:36:59.846Z,6.61
2019-02-11T00:37:59.836Z,6.63
2019-02-11T00:38:59.823Z,6.66
2019-02-11T00:39:59.826Z,6.63
2019-02-11T00:40:59.806Z,6.58
2019-02-11T00:41:59.792Z,6.56
2019-02-11T00:42:59.783Z,6.62
2019-02-11T00:43:59.779Z,6.62
2019-02-11T00:44:59.772Z,6.61
2019-02-11T00:45:59.806Z,6.61
2019-02-11T00:46:59.745Z,6.62
2019-02-11T00:47:59.728Z,6.63
2019-02-11T00:48:59.715Z,6.58
2019-02-11T00:49:59.716Z,6.66
2019-02-11T00:50:59.695Z,6.65
2019-02-11T00:51:59.686Z,6.58
2019-02-11T00:52:59.676Z,6.62
2019-02-11T00:53:59.662Z,6.58
2019-02-11T00:54:59.661Z,6.58
2019-02-11T00:55:59.638Z,6.46
2019-02-11T00:56:59.628Z,6.51
2019-02-11T00:57:59.625Z,6.47
2019-02-11T00:58:59.607Z,6.41
2019-02-11T00:59:59.611Z,6.32
2019-02-11T01:00:59.584Z,6.50
2019-02-11T01:01:59.579Z,6.40
2019-02-11T01:02:59.564Z,6.32
2019-02-11T01:03:59.559Z,6.30
2019-02-11T01:04:59.552Z,6.38
2019-02-11T01:05:59.531Z,6.36
2019-02-11T01:06:59.520Z,6.40
2019-02-11T01:07:59.512Z,6.32
2019-02-11T01:08:59.502Z,6.33
2019-02-11T01:09:59.507Z,6.33
2019-02-11T01:10:59.477Z,6.25
2019-02-11T01:11:59.463Z,6.30
2019-02-11T01:12:59.454Z,6.25
2019-02-11T01:13:59.446Z,6.26
2019-02-11T01:14:59.446Z,6.21
2019-02-11T01:15:59.423Z,6.26
2019-02-11T01:16:59.415Z,6.21
2019-02-11T01:17:59.399Z,6.21
2019-02-11T01:18:59.390Z,6.25
2019-02-11T01:19:59.395Z,6.13
2019-02-11T01:20:59.370Z,6.13
2019-02-11T01:21:59.362Z,6.13
2019-02-11T01:22:59.348Z,6.10
2019-02-11T01:23:59.345Z,6.06
2019-02-11T01:24:59.372Z,5.95
2019-02-11T01:25:59.339Z,5.88
2019-02-11T01:26:59.308Z,5.77
2019-02-11T01:27:59.301Z,5.71
2019-02-11T01:28:59.287Z,5.75
2019-02-11T01:29:59.274Z,5.60
2019-02-11T01:30:59.277Z,5.67
2019-02-11T01:31:59.255Z,5.60
2019-02-11T01:32:59.241Z,5.63
2019-02-11T01:33:59.235Z,5.59
2019-02-11T01:34:59.223Z,5.55
2019-02-11T01:35:59.222Z,5.43
2019-02-11T01:36:59.200Z,5.43
2019-02-11T01:37:59.191Z,5.30
2019-02-11T01:38:59.181Z,5.27
2019-02-11T01:39:59.168Z,5.16
2019-02-11T01:40:59.173Z,5.12
2019-02-11T01:41:59.148Z,5.10
2019-02-11T01:42:59.138Z,5.12
2019-02-11T01:43:59.128Z,5.01
2019-02-11T01:44:59.118Z,4.99
2019-02-11T01:45:59.118Z,4.92
2019-02-11T01:46:59.095Z,4.96
2019-02-11T01:47:59.140Z,4.91
2019-02-11T01:48:59.075Z,4.91
2019-02-11T01:49:59.062Z,4.75
2019-02-11T01:50:59.063Z,4.64
2019-02-11T01:51:59.048Z,4.64
2019-02-11T01:52:59.032Z,4.55
2019-02-11T01:53:59.024Z,4.65
2019-02-11T01:54:59.009Z,4.61
2019-02-11T01:55:59.011Z,4.64
2019-02-11T01:56:58.988Z,4.46
2019-02-11T01:57:58.979Z,4.57
2019-02-11T01:58:58.970Z,4.46
2019-02-11T01:59:58.966Z,4.52
2019-02-11T02:00:58.955Z,4.47
2019-02-11T02:01:58.938Z,4.47
2019-02-11T02:02:58.924Z,4.55
2019-02-11T02:03:58.920Z,4.51
2019-02-11T02:04:58.908Z,4.52
2019-02-11T02:05:58.905Z,4.50
2019-02-11T02:06:58.882Z,4.50
2019-02-11T02:07:58.869Z,4.37
2019-02-11T02:08:58.862Z,4.37
2019-02-11T02:09:58.851Z,4.24
2019-02-11T02:10:58.854Z,4.34
2019-02-11T02:11:58.832Z,4.32
2019-02-11T02:12:58.824Z,4.32
2019-02-11T02:13:58.805Z,4.25
2019-02-11T02:14:58.797Z,4.24
2019-02-11T02:15:58.808Z,4.26
2019-02-11T02:16:58.777Z,4.25
2019-02-11T02:17:58.768Z,4.33
2019-02-11T02:18:58.753Z,4.25
2019-02-11T02:19:58.742Z,4.26
2019-02-11T02:20:58.746Z,4.28
2019-02-11T02:21:58.722Z,4.26
2019-02-11T02:22:58.710Z,4.22
2019-02-11T02:23:58.700Z,4.21
2019-02-11T02:24:58.692Z,4.18
2019-02-11T02:25:58.696Z,4.21
2019-02-11T02:26:58.671Z,4.16
2019-02-11T02:27:58.662Z,4.04
2019-02-11T02:28:58.647Z,4.19
2019-02-11T02:29:58.637Z,4.19
2019-02-11T02:30:58.639Z,4.19
2019-02-11T02:31:58.622Z,4.10
2019-02-11T02:32:58.605Z,4.10
2019-02-11T02:33:58.602Z,4.10
2019-02-11T02:34:58.583Z,4.07
2019-02-11T02:35:58.586Z,4.10
2019-02-11T02:36:58.565Z,4.10
2019-02-11T02:37:58.554Z,4.03
2019-02-11T02:38:58.541Z,4.00
2019-02-11T02:39:58.532Z,3.96
2019-02-11T02:40:58.532Z,3.89
2019-02-11T02:41:58.513Z,3.96
2019-02-11T02:42:58.503Z,3.96
2019-02-11T02:43:58.494Z,3.92
2019-02-11T02:44:58.482Z,3.98
2019-02-11T02:45:58.488Z,3.92
2019-02-11T02:46:58.461Z,3.83
2019-02-11T02:47:58.456Z,3.86
2019-02-11T02:48:58.437Z,3.85
2019-02-11T02:49:58.431Z,3.86
2019-02-11T02:50:58.429Z,3.86
2019-02-11T02:51:58.403Z,3.72
2019-02-11T02:52:58.393Z,3.72
2019-02-11T02:53:58.382Z,3.71
2019-02-11T02:54:58.373Z,3.67
2019-02-11T02:55:58.376Z,3.68
2019-02-11T02:56:58.355Z,3.68
2019-02-11T02:57:58.345Z,3.64
2019-02-11T02:58:58.329Z,3.67
2019-02-11T02:59:58.319Z,3.58
2019-02-11T03:00:58.324Z,3.53
2019-02-11T03:01:58.296Z,3.54
2019-02-11T03:02:58.289Z,3.54
2019-02-11T03:03:58.276Z,3.57
2019-02-11T03:04:58.268Z,3.53
2019-02-11T03:05:58.271Z,3.60
2019-02-11T03:06:58.246Z,3.64
2019-02-11T03:07:58.239Z,3.58
2019-02-11T03:08:58.230Z,3.67
2019-02-11T03:09:58.219Z,3.52
2019-02-11T03:10:58.227Z,3.47
2019-02-11T03:11:58.196Z,3.47
2019-02-11T03:12:58.183Z,3.50
2019-02-11T03:14:05.385Z,3.44
2019-02-11T03:14:59.195Z,3.46
2019-02-11T03:15:58.171Z,3.49
2019-02-11T03:16:58.143Z,3.50
2019-02-11T03:17:58.132Z,3.54
2019-02-11T03:18:58.118Z,3.65
2019-02-11T03:19:58.114Z,3.54
2019-02-11T03:20:58.113Z,3.68
2019-02-11T03:21:58.086Z,3.68
2019-02-11T03:22:58.080Z,3.65
2019-02-11T03:23:58.069Z,3.67
2019-02-11T03:24:58.053Z,3.70
2019-02-11T03:25:58.057Z,3.61
2019-02-11T03:26:58.037Z,3.65
2019-02-11T03:27:58.026Z,3.62
2019-02-11T03:28:58.017Z,3.64
2019-02-11T03:29:58.004Z,3.54
2019-02-11T03:30:58.008Z,3.58
2019-02-11T03:31:59.966Z,3.53
2019-02-11T03:32:57.976Z,3.57
2019-02-11T03:33:57.966Z,3.67
2019-02-11T03:34:57.950Z,3.58
2019-02-11T03:35:57.945Z,3.60
2019-02-11T03:36:57.942Z,3.46
2019-02-11T03:37:57.942Z,3.46
2019-02-11T03:38:57.906Z,3.53
2019-02-11T03:39:57.906Z,3.44
2019-02-11T03:40:57.888Z,3.47
2019-02-11T03:41:57.889Z,3.39
2019-02-11T03:42:57.868Z,3.39
2019-02-11T03:43:57.858Z,3.46
2019-02-11T03:44:57.848Z,3.49
2019-02-11T03:45:57.838Z,3.52
2019-02-11T03:46:57.838Z,3.58
2019-02-11T03:47:57.814Z,3.60
2019-02-11T03:48:57.807Z,3.60
2019-02-11T03:49:57.794Z,3.67
2019-02-11T03:50:57.786Z,3.65
2019-02-11T03:51:57.782Z,3.61
2019-02-11T03:52:57.771Z,3.65
2019-02-11T03:53:57.754Z,3.70
2019-02-11T03:54:57.742Z,3.70
2019-02-11T03:55:57.734Z,3.76
2019-02-11T03:56:57.734Z,3.75
2019-02-11T03:57:57.720Z,3.85
2019-02-11T03:58:57.700Z,3.83
2019-02-11T03:59:57.694Z,3.96
2019-02-11T04:00:57.687Z,3.86
2019-02-11T04:01:57.686Z,3.98
2019-02-11T04:02:57.655Z,4.06
2019-02-11T04:03:57.650Z,4.01
2019-02-11T04:04:57.665Z,4.07
2019-02-11T04:05:57.629Z,4.10
2019-02-11T04:06:57.637Z,4.06
2019-02-11T04:07:57.606Z,4.12
2019-02-11T04:08:57.612Z,4.06
2019-02-11T04:09:57.590Z,4.10
2019-02-11T04:10:57.590Z,4.07
2019-02-11T04:11:57.572Z,4.04
2019-02-11T04:12:57.573Z,4.19
2019-02-11T04:13:57.550Z,4.21
2019-02-11T04:14:57.536Z,4.14
2019-02-11T04:15:57.522Z,4.29
2019-02-11T04:16:57.530Z,4.28
2019-02-11T04:17:57.506Z,4.40
2019-02-11T04:18:57.489Z,4.40
2019-02-11T04:19:57.478Z,4.46
2019-02-11T04:20:57.466Z,4.51
2019-02-11T04:21:57.517Z,4.43
2019-02-11T04:22:57.448Z,4.47
2019-02-11T04:23:57.435Z,4.54
2019-02-11T04:24:57.425Z,4.51
2019-02-11T04:25:57.414Z,4.55
2019-02-11T04:26:57.418Z,4.51
2019-02-11T04:27:57.395Z,4.59
2019-02-11T04:28:57.385Z,4.55
2019-02-11T04:29:57.374Z,4.65
2019-02-11T04:30:57.361Z,4.58
2019-02-11T04:31:57.366Z,4.55
2019-02-11T04:32:57.343Z,4.59
2019-02-11T04:33:58.289Z,4.57
2019-02-11T04:34:57.318Z,4.58
2019-02-11T04:35:57.304Z,4.61
2019-02-11T04:36:57.310Z,4.70
2019-02-11T04:37:57.287Z,4.83
2019-02-11T04:38:57.282Z,4.77
2019-02-11T04:39:57.271Z,4.84
2019-02-11T04:40:57.257Z,4.79
2019-02-11T04:41:57.261Z,4.88
2019-02-11T04:42:57.234Z,4.88
2019-02-11T04:43:57.221Z,4.94
2019-02-11T04:44:57.209Z,4.80
2019-02-11T04:45:57.204Z,4.79
2019-02-11T04:46:57.205Z,4.98
2019-02-11T04:47:57.180Z,4.91
2019-02-11T04:48:57.200Z,4.99
2019-02-11T04:49:57.158Z,4.99
2019-02-11T04:50:57.157Z,4.88
2019-02-11T04:51:58.909Z,4.96
2019-02-11T04:52:57.130Z,4.86
2019-02-11T04:53:57.118Z,4.99
2019-02-11T04:54:57.111Z,4.96
2019-02-11T04:55:57.091Z,4.91
2019-02-11T04:56:57.097Z,4.96
2019-02-11T04:57:57.100Z,4.92
2019-02-11T04:58:57.131Z,4.95
2019-02-11T04:59:57.051Z,5.01
2019-02-11T05:00:57.040Z,5.01
2019-02-11T05:01:57.052Z,5.02
2019-02-11T05:02:57.020Z,5.10
2019-02-11T05:03:57.012Z,5.01
2019-02-11T05:04:57.011Z,4.99
2019-02-11T05:05:57.024Z,4.96
2019-02-11T05:06:56.990Z,4.94
2019-02-11T05:07:56.969Z,4.94
2019-02-11T05:08:56.970Z,5.10
2019-02-11T05:09:56.944Z,5.07
2019-02-11T05:10:56.936Z,5.07
2019-02-11T05:11:56.935Z,5.10
2019-02-11T05:12:56.927Z,5.12
2019-02-11T05:13:56.905Z,5.04
2019-02-11T05:14:56.890Z,5.10
2019-02-11T05:15:56.886Z,5.12
2019-02-11T05:16:56.896Z,5.07
2019-02-11T05:17:56.859Z,5.09
2019-02-11T05:18:56.851Z,5.04
2019-02-11T05:19:56.838Z,5.09
2019-02-11T05:20:56.825Z,5.13
2019-02-11T05:21:56.829Z,5.13
2019-02-11T05:22:56.803Z,5.01
2019-02-11T05:23:56.795Z,5.12
2019-02-11T05:24:56.836Z,5.01
2019-02-11T05:25:56.772Z,5.04
2019-02-11T05:26:56.766Z,5.09
2019-02-11T05:27:56.774Z,5.07
2019-02-11T05:28:56.748Z,5.02
2019-02-11T05:29:56.731Z,4.98
2019-02-11T05:30:56.723Z,5.09
2019-02-11T05:31:56.712Z,5.12
2019-02-11T05:32:56.789Z,5.13
2019-02-11T05:33:56.691Z,5.10
2019-02-11T05:34:56.677Z,5.14
2019-02-11T05:35:56.666Z,5.20
2019-02-11T05:36:56.659Z,5.17
2019-02-11T05:37:56.660Z,5.17
2019-02-11T05:38:56.639Z,5.20
2019-02-11T05:39:56.625Z,5.22
2019-02-11T05:40:56.615Z,5.22
2019-02-11T05:41:56.601Z,5.27
2019-02-11T05:42:56.613Z,5.30
2019-02-11T05:43:56.581Z,5.30
2019-02-11T05:44:56.582Z,5.31
2019-02-11T05:45:56.560Z,5.31
2019-02-11T05:46:56.550Z,5.28
2019-02-11T05:47:56.553Z,5.32
2019-02-11T05:48:56.527Z,5.34
2019-02-11T05:49:56.516Z,5.32
2019-02-11T05:50:56.509Z,5.35
2019-02-11T05:51:56.493Z,5.32
2019-02-11T05:52:56.505Z,5.31
2019-02-11T05:53:56.470Z,5.37
2019-02-11T05:54:56.462Z,5.23
2019-02-11T05:55:56.451Z,5.19
2019-02-11T05:56:56.441Z,5.25
2019-02-11T05:57:56.466Z,5.27
2019-02-11T05:58:56.421Z,5.20
2019-02-11T05:59:56.420Z,5.23
2019-02-11T06:00:56.400Z,5.28
2019-02-11T06:01:56.389Z,5.25
2019-02-11T06:02:56.404Z,5.30
2019-02-11T06:03:56.371Z,5.28
2019-02-11T06:04:56.357Z,5.27
2019-02-11T06:05:56.348Z,5.22
2019-02-11T06:06:56.346Z,5.20
2019-02-11T06:07:56.336Z,5.28
2019-02-11T06:08:56.310Z,5.28
2019-02-11T06:09:56.303Z,5.25
2019-02-11T06:10:56.315Z,5.27
2019-02-11T06:11:56.282Z,5.32
2019-02-11T06:12:56.282Z,5.32
2019-02-11T06:13:56.259Z,5.28
2019-02-11T06:15:03.913Z,5.31
2019-02-11T06:15:57.238Z,5.35
2019-02-11T06:16:56.227Z,5.31
2019-02-11T06:17:56.236Z,5.31
2019-02-11T06:18:56.206Z,5.27
2019-02-11T06:19:56.194Z,5.23
2019-02-11T06:20:56.201Z,5.23
2019-02-11T06:21:56.174Z,5.22
2019-02-11T06:22:56.176Z,5.27
2019-02-11T06:23:56.158Z,5.31
2019-02-11T06:24:56.142Z,5.30
2019-02-11T06:25:56.245Z,5.35
2019-02-11T06:26:56.121Z,5.38
2019-02-11T06:27:56.132Z,5.37
2019-02-11T06:28:56.104Z,5.34
2019-02-11T06:29:56.090Z,5.45
2019-02-11T06:30:56.094Z,5.45
2019-02-11T06:31:56.064Z,5.43
2019-02-11T06:32:56.068Z,5.50
2019-02-11T06:33:56.047Z,5.45
2019-02-11T06:34:56.036Z,5.43
2019-02-11T06:35:56.033Z,5.50
2019-02-11T06:36:56.018Z,5.48
2019-02-11T06:37:56.014Z,5.43
2019-02-11T06:38:55.993Z,5.49
2019-02-11T06:39:55.988Z,5.52
2019-02-11T06:40:55.971Z,5.53
2019-02-11T06:41:55.973Z,5.55
2019-02-11T06:42:55.965Z,5.55
2019-02-11T06:43:55.948Z,5.55
2019-02-11T06:44:55.928Z,5.50
2019-02-11T06:45:55.916Z,5.48
2019-02-11T06:46:55.907Z,5.49
2019-02-11T06:47:55.910Z,5.57
2019-02-11T06:48:55.887Z,5.57
2019-02-11T06:49:55.880Z,5.56
2019-02-11T06:50:55.887Z,5.55
2019-02-11T06:51:55.864Z,5.64
2019-02-11T06:52:55.876Z,5.64
2019-02-11T06:53:55.841Z,5.60
2019-02-11T06:54:55.831Z,5.66
2019-02-11T06:55:55.814Z,5.57
2019-02-11T06:56:55.858Z,5.66
2019-02-11T06:57:55.801Z,5.64
2019-02-11T06:58:55.780Z,5.60
2019-02-11T06:59:55.770Z,5.67
2019-02-11T07:00:55.771Z,5.70
2019-02-11T07:01:55.749Z,5.75
2019-02-11T07:02:55.750Z,5.74
2019-02-11T07:03:55.727Z,5.71
2019-02-11T07:04:55.715Z,5.81
2019-02-11T07:05:55.713Z,5.74
2019-02-11T07:06:55.696Z,5.68
2019-02-11T07:07:55.694Z,5.68
2019-02-11T07:08:55.681Z,5.73
2019-02-11T07:09:55.661Z,5.75
2019-02-11T07:10:56.009Z,5.74
2019-02-11T07:11:55.642Z,5.77
2019-02-11T07:12:55.643Z,5.77
2019-02-11T07:13:55.623Z,5.74
2019-02-11T07:14:55.610Z,5.71
2019-02-11T07:15:55.598Z,5.73
2019-02-11T07:16:55.589Z,5.75
2019-02-11T07:17:55.610Z,5.70
2019-02-11T07:18:55.572Z,5.73
2019-02-11T07:19:55.587Z,5.71
2019-02-11T07:20:55.548Z,5.77
2019-02-11T07:21:55.552Z,5.74
2019-02-11T07:22:55.537Z,5.68
2019-02-11T07:23:55.517Z,5.75
2019-02-11T07:24:55.502Z,5.78
2019-02-11T07:25:55.499Z,5.78
2019-02-11T07:26:55.487Z,5.77
2019-02-11T07:27:55.508Z,5.82
2019-02-11T07:28:55.465Z,5.85
2019-02-11T07:29:55.452Z,5.89
2019-02-11T07:30:55.449Z,5.85
2019-02-11T07:31:55.432Z,5.95
2019-02-11T07:32:55.434Z,5.91
2019-02-11T07:33:55.422Z,5.95
2019-02-11T07:34:55.400Z,6.01
2019-02-11T07:35:55.393Z,6.03
2019-02-11T07:36:55.380Z,6.00
2019-02-11T07:37:55.380Z,6.01
2019-02-11T07:38:55.388Z,6.11
2019-02-11T07:39:55.350Z,6.11
2019-02-11T07:40:55.338Z,6.11
2019-02-11T07:41:55.332Z,6.18
2019-02-11T07:42:55.317Z,6.04
2019-02-11T07:43:55.318Z,6.07
2019-02-11T07:44:55.297Z,5.98
2019-02-11T07:45:55.288Z,5.93
2019-02-11T07:46:55.276Z,6.00
2019-02-11T07:47:55.262Z,6.00
2019-02-11T07:48:55.272Z,5.93
2019-02-11T07:49:55.248Z,5.92
2019-02-11T07:50:55.256Z,5.92
2019-02-11T07:51:55.220Z,6.01
2019-02-11T07:52:55.210Z,6.01
2019-02-11T07:53:55.214Z,6.00
2019-02-11T07:54:55.192Z,6.00
2019-02-11T07:55:55.176Z,6.03
2019-02-11T07:56:55.167Z,6.03
2019-02-11T07:57:55.159Z,6.06
2019-02-11T07:58:55.163Z,6.04
2019-02-11T07:59:55.138Z,6.09
2019-02-11T08:00:55.125Z,6.14
2019-02-11T08:01:55.117Z,6.11
2019-02-11T08:02:55.119Z,6.13
2019-02-11T08:03:55.105Z,6.06
2019-02-11T08:04:55.092Z,6.13
2019-02-11T08:05:55.075Z,6.13
2019-02-11T08:06:55.064Z,6.14
2019-02-11T08:07:55.064Z,6.26
2019-02-11T08:08:55.067Z,6.32
2019-02-11T08:09:55.036Z,6.28
2019-02-11T08:10:55.022Z,6.58
2019-02-11T08:11:55.011Z,6.62
2019-02-11T08:12:55.005Z,6.61
2019-02-11T08:13:55.002Z,6.65
2019-02-11T08:14:54.984Z,6.72
2019-02-11T08:15:54.968Z,6.79
2019-02-11T08:16:54.958Z,6.81
2019-02-11T08:17:54.968Z,6.80
2019-02-11T08:18:54.949Z,6.81
2019-02-11T08:19:55.736Z,6.90
2019-02-11T08:20:54.913Z,6.87
2019-02-11T08:21:54.900Z,6.79
2019-02-11T08:22:54.889Z,6.87
2019-02-11T08:23:54.896Z,6.91
2019-02-11T08:24:54.874Z,6.94
2019-02-11T08:25:54.859Z,6.94
2019-02-11T08:26:54.849Z,6.99
2019-02-11T08:27:54.849Z,7.01
2019-02-11T08:28:54.840Z,6.99
2019-02-11T08:29:54.815Z,6.95
2019-02-11T08:30:54.807Z,6.99
2019-02-11T08:31:54.796Z,6.87
2019-02-11T08:32:54.786Z,6.97
2019-02-11T08:33:54.786Z,7.01
2019-02-11T08:34:54.778Z,6.98
2019-02-11T08:35:54.766Z,6.95
2019-02-11T08:36:54.742Z,6.94
2019-02-11T08:37:54.733Z,6.98
2019-02-11T08:38:54.759Z,6.94
2019-02-11T08:39:54.705Z,6.86
2019-02-11T08:40:54.697Z,6.89
2019-02-11T08:41:54.692Z,6.87
2019-02-11T08:42:54.672Z,6.87
2019-02-11T08:43:54.677Z,6.84
2019-02-11T08:44:54.676Z,6.79
2019-02-11T08:45:54.652Z,6.69
2019-02-11T08:46:54.630Z,6.77
2019-02-11T08:47:54.620Z,6.79
2019-02-11T08:48:54.614Z,6.66
2019-02-11T08:49:54.607Z,6.83
2019-02-11T08:50:54.600Z,6.76
2019-02-11T08:51:54.576Z,6.68
2019-02-11T08:52:54.565Z,6.73
2019-02-11T08:53:54.556Z,6.62
2019-02-11T08:54:54.568Z,6.69
2019-02-11T08:55:54.538Z,6.71
2019-02-11T08:56:54.527Z,6.71
2019-02-11T08:57:54.510Z,6.63
2019-02-11T08:58:54.509Z,6.65
2019-02-11T08:59:54.503Z,6.68
2019-02-11T09:00:54.489Z,6.56
2019-02-11T09:01:54.469Z,6.59
2019-02-11T09:02:54.461Z,6.61
2019-02-11T09:03:54.455Z,6.58
2019-02-11T09:04:54.470Z,6.59
2019-02-11T09:05:54.423Z,6.58
2019-02-11T09:06:54.423Z,6.63
2019-02-11T09:07:54.404Z,6.56
2019-02-11T09:08:54.413Z,6.54
2019-02-11T09:09:54.397Z,6.59
2019-02-11T09:10:54.395Z,6.56
2019-02-11T09:11:54.360Z,6.61
2019-02-11T09:12:54.350Z,6.71
2019-02-11T09:13:54.336Z,6.65
2019-02-11T09:14:54.341Z,6.66
2019-02-11T09:15:55.440Z,6.68
2019-02-11T09:16:54.306Z,6.80
2019-02-11T09:17:54.295Z,6.73
2019-02-11T09:18:54.286Z,6.72
2019-02-11T09:19:54.292Z,6.69
2019-02-11T09:20:54.266Z,6.83
2019-02-11T09:21:54.251Z,6.87
2019-02-11T09:22:54.239Z,6.79
2019-02-11T09:23:54.236Z,6.80
2019-02-11T09:24:54.250Z,6.80
2019-02-11T09:25:54.210Z,6.72
2019-02-11T09:26:54.196Z,6.80
2019-02-11T09:27:54.192Z,6.72
2019-02-11T09:28:54.179Z,6.76
2019-02-11T09:29:54.176Z,6.80
2019-02-11T09:30:54.181Z,6.76
2019-02-11T09:31:54.141Z,6.84
2019-02-11T09:32:54.135Z,6.83
2019-02-11T09:33:54.137Z,6.80
2019-02-11T09:34:54.124Z,6.76
2019-02-11T09:35:54.131Z,6.89
2019-02-11T09:36:54.094Z,6.90
2019-02-11T09:37:54.080Z,6.94
2019-02-11T09:38:54.067Z,6.99
2019-02-11T09:39:54.069Z,7.07
2019-02-11T09:40:54.047Z,7.04
2019-02-11T09:41:54.038Z,7.05
2019-02-11T09:42:54.025Z,7.09
2019-02-11T09:43:54.024Z,7.16
2019-02-11T09:44:54.093Z,7.17
2019-02-11T09:45:53.990Z,7.07
2019-02-11T09:46:53.980Z,7.07
2019-02-11T09:47:53.971Z,7.07
2019-02-11T09:48:53.982Z,7.12
2019-02-11T09:49:53.958Z,7.08
2019-02-11T09:50:53.963Z,7.05
2019-02-11T09:51:53.927Z,7.05
2019-02-11T09:52:53.921Z,7.15
2019-02-11T09:53:53.903Z,7.08
2019-02-11T09:54:53.909Z,7.17
2019-02-11T09:55:53.884Z,7.13
2019-02-11T09:56:53.873Z,7.17
2019-02-11T09:57:53.862Z,7.32
2019-02-11T09:58:53.862Z,7.32
2019-02-11T09:59:53.852Z,7.32
2019-02-11T10:00:53.832Z,7.37
2019-02-11T10:01:53.831Z,7.37
2019-02-11T10:02:53.809Z,7.31
2019-02-11T10:03:53.797Z,7.35
2019-02-11T10:04:53.800Z,7.19
2019-02-11T10:05:53.786Z,7.34
2019-02-11T10:06:53.766Z,7.38
2019-02-11T10:07:53.757Z,7.31
2019-02-11T10:08:53.751Z,7.38
2019-02-11T10:09:53.743Z,7.24
2019-02-11T10:10:53.723Z,7.17
2019-02-11T10:11:53.715Z,7.22
2019-02-11T10:12:53.729Z,7.19
2019-02-11T10:13:53.694Z,7.01
2019-02-11T10:14:53.704Z,7.24
2019-02-11T10:15:53.671Z,7.17
2019-02-11T10:16:53.660Z,7.13
2019-02-11T10:17:53.759Z,7.17
2019-02-11T10:18:53.641Z,7.22
2019-02-11T10:19:53.636Z,7.16
2019-02-11T10:20:53.655Z,7.22
2019-02-11T10:21:53.619Z,7.31
2019-02-11T10:22:53.601Z,7.31
2019-02-11T10:23:53.585Z,7.20
2019-02-11T10:24:53.598Z,7.31
2019-02-11T10:25:53.563Z,7.19
2019-02-11T10:26:53.555Z,7.27
2019-02-11T10:27:53.541Z,7.38
2019-02-11T10:28:53.532Z,7.37
2019-02-11T10:29:53.534Z,7.31
2019-02-11T10:30:53.509Z,7.32
2019-02-11T10:31:53.499Z,7.31
2019-02-11T10:32:53.490Z,7.27
2019-02-11T10:33:53.602Z,7.29
2019-02-11T10:34:53.483Z,7.27
2019-02-11T10:35:53.459Z,7.22
2019-02-11T10:36:53.447Z,7.22
2019-02-11T10:37:53.445Z,7.29
2019-02-11T10:38:53.428Z,7.32
2019-02-11T10:39:53.432Z,7.35
2019-02-11T10:40:53.403Z,7.35
2019-02-11T10:41:53.412Z,7.53
2019-02-11T10:42:53.387Z,7.47
2019-02-11T10:43:53.383Z,7.47
2019-02-11T10:44:53.388Z,7.55
2019-02-11T10:45:53.359Z,7.56
2019-02-11T10:46:53.341Z,7.52
2019-02-11T10:47:53.330Z,7.67
2019-02-11T10:48:53.335Z,7.69
2019-02-11T10:49:53.322Z,7.72
2019-02-11T10:50:53.915Z,7.82
2019-02-11T10:51:53.290Z,7.81
2019-02-11T10:52:53.277Z,7.97
2019-02-11T10:53:53.265Z,7.94
2019-02-11T10:54:53.264Z,8.03
2019-02-11T10:55:53.244Z,8.04
2019-02-11T10:56:53.234Z,7.94
2019-02-11T10:57:53.232Z,7.99
2019-02-11T10:58:53.225Z,7.97
2019-02-11T10:59:53.231Z,7.96
2019-02-11T11:00:53.191Z,8.07
2019-02-11T11:01:53.184Z,8.08
2019-02-11T11:02:53.169Z,8.10
2019-02-11T11:03:53.813Z,8.15
2019-02-11T11:04:53.936Z,8.12
2019-02-11T11:05:53.211Z,8.21
2019-02-11T11:06:53.128Z,8.17
2019-02-11T11:07:53.115Z,8.20
2019-02-11T11:08:53.105Z,8.20
2019-02-11T11:09:53.318Z,8.28
2019-02-11T11:10:53.094Z,8.17
2019-02-11T11:11:53.079Z,8.22
2019-02-11T11:12:53.062Z,8.18
2019-02-11T11:13:53.052Z,8.15
2019-02-11T11:14:53.040Z,8.18
2019-02-11T11:15:53.044Z,8.18
2019-02-11T11:16:53.024Z,8.15
2019-02-11T11:17:53.008Z,8.10
2019-02-11T11:18:52.996Z,8.03
2019-02-11T11:19:52.986Z,8.04
2019-02-11T11:20:52.989Z,8.08
2019-02-11T11:21:52.964Z,8.08
2019-02-11T11:22:52.956Z,8.04
2019-02-11T11:23:52.946Z,8.00
2019-02-11T11:24:52.934Z,7.99
2019-02-11T11:25:52.936Z,7.97
2019-02-11T11:26:52.912Z,7.99
2019-02-11T11:27:52.977Z,7.97
2019-02-11T11:28:52.942Z,7.97
2019-02-11T11:29:52.923Z,7.97
2019-02-11T11:30:53.895Z,7.97
2019-02-11T11:31:52.865Z,7.97
2019-02-11T11:32:52.855Z,8.08
2019-02-11T11:33:52.868Z,7.99
2019-02-11T11:34:53.361Z,8.07
2019-02-11T11:35:52.971Z,8.20
2019-02-11T11:36:52.816Z,8.25
2019-02-11T11:37:52.814Z,8.26
2019-02-11T11:38:52.795Z,8.28
2019-02-11T11:39:52.779Z,8.32
2019-02-11T11:40:52.856Z,8.33
2019-02-11T11:41:52.755Z,8.35
2019-02-11T11:42:52.781Z,8.25
2019-02-11T11:43:52.735Z,8.12
2019-02-11T11:44:52.741Z,8.12
2019-02-11T11:45:52.784Z,8.18
2019-02-11T11:46:52.702Z,8.07
2019-02-11T11:47:53.401Z,8.08
2019-02-11T11:48:52.726Z,8.02
2019-02-11T11:49:52.707Z,8.11
2019-02-11T11:50:52.699Z,8.12
2019-02-11T11:51:52.690Z,8.10
2019-02-11T11:52:52.761Z,8.10
2019-02-11T11:53:52.639Z,8.00
2019-02-11T11:54:52.616Z,8.00
2019-02-11T11:55:52.661Z,7.96
2019-02-11T11:56:52.605Z,7.97
2019-02-11T11:57:52.610Z,7.94
2019-02-11T11:58:52.579Z,7.94
2019-02-11T11:59:52.570Z,7.99
2019-02-11T12:00:52.567Z,8.02
2019-02-11T12:01:52.587Z,7.97
2019-02-11T12:03:01.396Z,8.12
2019-02-11T12:03:53.526Z,8.04
2019-02-11T12:04:52.508Z,8.08
2019-02-11T12:05:52.512Z,8.11
2019-02-11T12:06:52.483Z,8.03
2019-02-11T12:07:52.501Z,8.03
2019-02-11T12:08:52.480Z,8.17
2019-02-11T12:09:52.460Z,8.14
2019-02-11T12:10:52.486Z,8.11
2019-02-11T12:11:52.442Z,8.08
2019-02-11T12:12:52.422Z,8.08
2019-02-11T12:13:52.415Z,8.18
2019-02-11T12:14:52.422Z,8.07
2019-02-11T12:15:52.409Z,8.08
2019-02-11T12:16:56.720Z,7.97
2019-02-11T12:17:53.368Z,7.97
2019-02-11T12:18:52.354Z,7.96
2019-02-11T12:19:52.342Z,7.96
2019-02-11T12:20:52.345Z,7.93
2019-02-11T12:21:52.350Z,7.92
2019-02-11T12:22:52.324Z,7.92
2019-02-11T12:23:52.322Z,7.97
2019-02-11T12:24:52.303Z,8.02
2019-02-11T12:25:52.295Z,7.93
2019-02-11T12:26:52.297Z,7.97
2019-02-11T12:27:52.261Z,7.93
2019-02-11T12:28:52.256Z,7.87
2019-02-11T12:29:52.244Z,7.92
2019-02-11T12:30:53.431Z,7.89
2019-02-11T12:31:52.219Z,7.93
2019-02-11T12:32:54.908Z,7.87
2019-02-11T12:33:52.207Z,7.94
2019-02-11T12:34:52.184Z,7.85
2019-02-11T12:35:52.207Z,7.79
2019-02-11T12:36:52.168Z,7.89
2019-02-11T12:37:52.168Z,7.89
2019-02-11T12:38:52.140Z,7.84
2019-02-11T12:39:52.131Z,7.82
2019-02-11T12:40:52.132Z,7.94
2019-02-11T12:41:52.116Z,7.84
2019-02-11T12:42:53.451Z,7.93
2019-02-11T12:43:52.119Z,8.00
2019-02-11T12:44:52.082Z,7.94
2019-02-11T12:45:52.078Z,7.99
2019-02-11T12:46:52.057Z,7.99
2019-02-11T12:47:52.053Z,7.97
2019-02-11T12:48:52.033Z,7.97
2019-02-11T12:49:52.056Z,7.99
2019-02-11T12:50:52.040Z,8.03
2019-02-11T12:51:52.012Z,7.96
2019-02-11T12:52:51.997Z,7.97
2019-02-11T12:53:52.013Z,7.90
2019-02-11T12:54:51.972Z,7.94
2019-02-11T12:55:51.968Z,7.92
2019-02-11T12:56:52.055Z,8.08
2019-02-11T12:57:51.942Z,8.04
2019-02-11T12:58:51.937Z,7.97
2019-02-11T12:59:51.919Z,7.94
2019-02-11T13:00:51.913Z,7.94
2019-02-11T13:01:51.904Z,7.90
2019-02-11T13:02:51.945Z,7.99
2019-02-11T13:03:51.881Z,7.97
2019-02-11T13:04:51.868Z,7.94
2019-02-11T13:05:51.942Z,8.02
2019-02-11T13:06:51.879Z,8.00
2019-02-11T13:07:51.878Z,8.08
2019-02-11T13:08:51.841Z,8.00
2019-02-11T13:09:51.829Z,8.03
2019-02-11T13:10:51.813Z,8.10
2019-02-11T13:11:51.815Z,8.04
2019-02-11T13:12:51.798Z,8.04
2019-02-11T13:13:51.787Z,8.02
2019-02-11T13:14:51.780Z,7.99
2019-02-11T13:16:01.551Z,8.03
2019-02-11T13:16:52.757Z,8.11
2019-02-11T13:17:51.908Z,8.12